Time;durP1;ratioP1;P1;durP2;ratioP2;P2;SDS_P1;SDS_P2;PMS_P1;PMS_P2;Temp;Humidity;BMP_temperature;BMP_pressure;BME280_temperature;BME280_humidity;BME280_pressure;Samples;Min_cycle;Max_cycle;Signal;HPM_P1;HPM_P2
2022/03/30 00:00:14;;;;;;;;;;;;;;;;;;5012345;28;1297;-70
2022/03/30 00:02:40;;;;;;;;;;;;;;;;;;5012401;28;947;-70
2022/03/30 00:05:07;;;;;;;;;;;;;;;;;;5011643;28;1070;-70
2022/03/30 00:07:33;;;;;;;;;;;;;;;;;;5011930;28;1065;-69
2022/03/30 00:10:01;;;;;;;;;;;;;;;;;;5011823;28;1316;-70
2022/03/30 00:12:27;;;;;;;;;;;;;;;;;;5012059;28;1914;-69
2022/03/30 00:14:53;;;;;;;;;;;;;;;;;;5012470;28;769;-70
2022/03/30 00:17:19;;;;;;;;;;;;;;;;;;5011843;28;1121;-70
2022/03/30 00:19:46;;;;;;;;;;;;;;;;;;5011772;28;1305;-69
2022/03/30 00:22:12;;;;;;;;;;;;;;;;;;5012428;28;745;-69
2022/03/30 00:24:39;;;;;;;;;;;;;;;;;;5012290;28;1078;-70
2022/03/30 00:27:06;;;;;;;;;;;;;;;;;;5011638;28;1007;-70
2022/03/30 00:29:33;;;;;;;;;;;;;;;;;;5010154;28;1326;-70
2022/03/30 00:31:59;;;;;;;;;;;;;;;;;;5011802;28;1907;-70
2022/03/30 00:34:26;;;;;;;;;;;;;;;;;;5011647;28;810;-70
2022/03/30 00:36:52;;;;;;;;;;;;;;;;;;5011476;28;1058;-69
2022/03/30 00:39:18;;;;;;;;;;;;;;;;;;5009926;28;1488;-69
2022/03/30 00:41:44;;;;;;;;;;;;;;;;;;5011579;28;774;-69
2022/03/30 00:44:13;;;;;;;;;;;;;;;;;;5010228;28;1232;-69
2022/03/30 00:46:41;;;;;;;;;;;;;;;;;;5011278;28;1176;-70
2022/03/30 00:49:08;;;;;;;;;;;;;;;;;;5011085;28;1395;-68
2022/03/30 00:51:34;;;;;;;;;;;;;;;;;;5011295;28;1975;-70
2022/03/30 00:54:00;;;;;;;;;;;;;;;;;;5011626;28;946;-69
2022/03/30 00:56:28;;;;;;;;;;;;;;;;;;5011131;28;778;-69
2022/03/30 00:58:54;;;;;;;;;;;;;;;;;;5011114;28;1287;-70
2022/03/30 01:01:22;;;;;;;;;;;;;;;;;;5011926;28;983;-69
2022/03/30 01:03:48;;;;;;;;;;;;;;;;;;5011731;28;900;-69
2022/03/30 01:06:14;;;;;;;;;;;;;;;;;;5011233;28;1059;-69
2022/03/30 01:08:41;;;;;;;;;;;;;;;;;;5011208;28;1396;-69
2022/03/30 01:11:07;;;;;;;;;;;;;;;;;;5011087;28;1082;-70
2022/03/30 01:13:33;;;;;;;;;;;;;;;;;;5011073;28;1969;-69
2022/03/30 01:16:02;;;;;;;;;;;;;;;;;;5011193;28;900;-69
2022/03/30 01:18:29;;;;;;;;;;;;;;;;;;5009121;28;1298;-69
2022/03/30 01:20:57;;;;;;;;;;;;;;;;;;5090465;23;2520;-70
2022/03/30 01:23:23;;;;;;;;;;;;;;;;;;5090770;28;1191;-70
2022/03/30 01:25:49;;;;;;;;;;;;;;;;;;5090568;28;1519;-70
2022/03/30 01:28:15;;;;;;;;;;;;;;;;;;5090452;28;857;-70
2022/03/30 01:33:26;;;;;;;;;;;;;;;;;;5090647;28;1922;-70
2022/03/30 01:35:52;;;;;;;;;;;;;;;;;;5090756;28;1186;-70
2022/03/30 01:38:20;;;;;;;;;;;;;;;;;;5090549;28;844;-70
2022/03/30 01:40:46;;;;;;;;;;;;;;;;;;5090305;28;1351;-70
2022/03/30 01:43:12;;;;;;;;;;;;;;;;;;5090588;28;1953;-69
2022/03/30 01:45:38;;;;;;;;;;;;;;;;;;5090470;28;974;-70
2022/03/30 01:48:05;;;;;;;;;;;;;;;;;;5090069;28;843;-70
2022/03/30 01:50:32;;;;;;;;;;;;;;;;;;5090314;28;1288;-69
2022/03/30 01:52:59;;;;;;;;;;;;;;;;;;5090565;28;986;-70
2022/03/30 01:55:27;;;;;;;;;;;;;;;;;;5090616;28;704;-69
2022/03/30 01:57:53;;;;;;;;;;;;;;;;;;5094021;28;911;-69
2022/03/30 02:00:20;;;;;;;;;;;;;;;;;;5094011;28;1396;-69
2022/03/30 02:02:46;;;;;;;;;;;;;;;;;;5094136;28;1910;-70
2022/03/30 02:05:12;;;;;;;;;;;;;;;;;;5094001;28;1109;-70
2022/03/30 02:07:39;;;;;;;;;;;;;;;;;;5093723;28;1273;-70
2022/03/30 02:10:06;;;;;;;;;;;;;;;;;;5093832;28;1345;-70
2022/03/30 02:12:34;;;;;;;;;;;;;;;;;;5094135;28;962;-70
2022/03/30 02:15:00;;;;;;;;;;;;;;;;;;5075705;28;903;-70
2022/03/30 02:17:27;;;;;;;;;;;;;;;;;;5093499;28;1074;-69
2022/03/30 02:19:53;;;;;;;;;;;;;;;;;;5075217;28;1340;-70
2022/03/30 02:22:19;;;;;;;;;;;;;;;;;;5093747;28;1973;-70
2022/03/30 02:24:45;;;;;;;;;;;;;;;;;;5075247;28;1222;-71
2022/03/30 02:27:11;;;;;;;;;;;;;;;;;;5093508;28;1010;-70
2022/03/30 02:29:39;;;;;;;;;;;;;;;;;;5093350;28;1421;-70
2022/03/30 02:32:06;;;;;;;;;;;;;;;;;;5093487;28;1082;-69
2022/03/30 02:34:32;;;;;;;;;;;;;;;;;;5093835;28;991;-71
2022/03/30 02:36:59;;;;;;;;;;;;;;;;;;5093097;28;1124;-70
2022/03/30 02:39:26;;;;;;;;;;;;;;;;;;5093367;28;1404;-69
2022/03/30 02:41:52;;;;;;;;;;;;;;;;;;5093156;28;868;-69
2022/03/30 02:44:18;;;;;;;;;;;;;;;;;;5093368;28;1918;-70
2022/03/30 02:46:46;;;;;;;;;;;;;;;;;;5093043;28;812;-70
2022/03/30 02:49:12;;;;;;;;;;;;;;;;;;5074981;28;1309;-69
2022/03/30 02:51:39;;;;;;;;;;;;;;;;;;5093447;28;990;-70
2022/03/30 02:54:06;;;;;;;;;;;;;;;;;;5093337;28;1136;-69
2022/03/30 02:56:33;;;;;;;;;;;;;;;;;;5093179;28;1077;-70
2022/03/30 02:58:59;;;;;;;;;;;;;;;;;;5092565;28;1331;-70
2022/03/30 03:01:25;;;;;;;;;;;;;;;;;;5093521;28;807;-70
2022/03/30 03:03:53;;;;;;;;;;;;;;;;;;5093106;28;1914;-69
2022/03/30 03:06:19;;;;;;;;;;;;;;;;;;5092738;28;1053;-70
2022/03/30 03:08:45;;;;;;;;;;;;;;;;;;5091498;28;915;-69
2022/03/30 03:11:11;;;;;;;;;;;;;;;;;;5092847;28;1301;-70
2022/03/30 03:13:37;;;;;;;;;;;;;;;;;;5093266;28;835;-70
2022/03/30 03:16:05;;;;;;;;;;;;;;;;;;5092879;28;895;-70
2022/03/30 03:18:31;;;;;;;;;;;;;;;;;;5084723;28;2060;-70
2022/03/30 03:20:59;;;;;;;;;;;;;;;;;;5089047;28;1407;-70
2022/03/30 03:23:25;;;;;;;;;;;;;;;;;;5074158;28;1972;-69
2022/03/30 03:25:53;;;;;;;;;;;;;;;;;;5092980;28;776;-70
2022/03/30 03:28:19;;;;;;;;;;;;;;;;;;5092202;28;791;-70
2022/03/30 03:30:45;;;;;;;;;;;;;;;;;;5092462;28;1373;-69
2022/03/30 03:33:12;;;;;;;;;;;;;;;;;;5092753;28;1002;-70
2022/03/30 03:35:38;;;;;;;;;;;;;;;;;;5092841;28;1054;-70
2022/03/30 03:38:07;;;;;;;;;;;;;;;;;;5091916;28;1010;-70
2022/03/30 03:40:34;;;;;;;;;;;;;;;;;;5092262;28;1304;-70
2022/03/30 03:43:00;;;;;;;;;;;;;;;;;;5092182;28;1918;-70
2022/03/30 03:45:27;;;;;;;;;;;;;;;;;;5092268;28;800;-70
2022/03/30 03:47:53;;;;;;;;;;;;;;;;;;5091558;28;1001;-69
2022/03/30 03:50:19;;;;;;;;;;;;;;;;;;5074118;28;1316;-69
2022/03/30 03:52:46;;;;;;;;;;;;;;;;;;5092308;28;1125;-70
2022/03/30 03:55:13;;;;;;;;;;;;;;;;;;5074101;28;1100;-69
2022/03/30 03:57:39;;;;;;;;;;;;;;;;;;5091656;28;847;-70
2022/03/30 04:00:06;;;;;;;;;;;;;;;;;;5092148;28;1363;-70
2022/03/30 04:02:38;;;;;;;;;;;;;;;;;;5092010;28;1910;-71
2022/03/30 04:05:05;;;;;;;;;;;;;;;;;;5074094;28;1118;-71
2022/03/30 04:07:32;;;;;;;;;;;;;;;;;;5091604;28;919;-70
2022/03/30 04:09:58;;;;;;;;;;;;;;;;;;5091627;28;1356;-70
2022/03/30 04:12:26;;;;;;;;;;;;;;;;;;5092010;28;1094;-70
2022/03/30 04:14:52;;;;;;;;;;;;;;;;;;5091733;28;1057;-70
2022/03/30 04:17:18;;;;;;;;;;;;;;;;;;5091543;28;1101;-70
2022/03/30 04:19:44;;;;;;;;;;;;;;;;;;5090770;28;1383;-69
2022/03/30 04:22:10;;;;;;;;;;;;;;;;;;5072438;28;1577;-70
2022/03/30 04:24:37;;;;;;;;;;;;;;;;;;5091202;28;1969;-70
2022/03/30 04:27:04;;;;;;;;;;;;;;;;;;5091147;28;836;-69
2022/03/30 04:29:31;;;;;;;;;;;;;;;;;;5090901;28;1337;-70
2022/03/30 04:31:57;;;;;;;;;;;;;;;;;;5072587;28;1215;-70
2022/03/30 04:34:24;;;;;;;;;;;;;;;;;;5090346;28;1061;-70
2022/03/30 04:36:50;;;;;;;;;;;;;;;;;;5090200;28;1088;-70
2022/03/30 04:39:16;;;;;;;;;;;;;;;;;;5090080;28;1381;-70
2022/03/30 04:41:42;;;;;;;;;;;;;;;;;;5090361;28;907;-69
2022/03/30 04:44:09;;;;;;;;;;;;;;;;;;5090153;28;1973;-70
2022/03/30 04:46:36;;;;;;;;;;;;;;;;;;5071590;28;1248;-68
2022/03/30 04:49:02;;;;;;;;;;;;;;;;;;5089017;28;1424;-68
2022/03/30 04:51:29;;;;;;;;;;;;;;;;;;5080081;28;2113;-68
2022/03/30 04:53:55;;;;;;;;;;;;;;;;;;5067987;28;1215;-68
2022/03/30 04:56:22;;;;;;;;;;;;;;;;;;5070515;28;1539;-70
2022/03/30 04:58:49;;;;;;;;;;;;;;;;;;5087652;28;1235;-70
2022/03/30 05:01:16;;;;;;;;;;;;;;;;;;5087931;28;1345;-69
2022/03/30 05:03:43;;;;;;;;;;;;;;;;;;5083358;28;1971;-69
2022/03/30 05:06:10;;;;;;;;;;;;;;;;;;5070121;28;1423;-69
2022/03/30 05:08:36;;;;;;;;;;;;;;;;;;5068793;28;1602;-69
2022/03/30 05:11:02;;;;;;;;;;;;;;;;;;5085755;28;1538;-69
2022/03/30 05:13:28;;;;;;;;;;;;;;;;;;5060182;28;1637;-68
2022/03/30 05:15:54;;;;;;;;;;;;;;;;;;5084151;28;1308;-69
2022/03/30 05:18:22;;;;;;;;;;;;;;;;;;5085122;28;1049;-69
2022/03/30 05:20:49;;;;;;;;;;;;;;;;;;5042227;28;988893;-68
2022/03/30 05:23:15;;;;;;;;;;;;;;;;;;5088092;28;1979;-68
2022/03/30 05:25:42;;;;;;;;;;;;;;;;;;5087002;28;1597;-70
2022/03/30 05:28:08;;;;;;;;;;;;;;;;;;5071682;28;1760;-70
2022/03/30 05:30:34;;;;;;;;;;;;;;;;;;5058078;28;1520;-70
2022/03/30 05:33:01;;;;;;;;;;;;;;;;;;5093936;28;1088;-70
2022/03/30 05:35:27;;;;;;;;;;;;;;;;;;5091721;28;1637;-69
2022/03/30 05:37:54;;;;;;;;;;;;;;;;;;5055469;28;1637;-68
2022/03/30 05:40:21;;;;;;;;;;;;;;;;;;5080177;28;1594;-70
2022/03/30 05:42:47;;;;;;;;;;;;;;;;;;5079762;28;1553;-68
2022/03/30 05:45:13;;;;;;;;;;;;;;;;;;5083291;28;1967;-69
2022/03/30 05:47:40;;;;;;;;;;;;;;;;;;5080150;28;1389;-71
2022/03/30 05:50:07;;;;;;;;;;;;;;;;;;5082768;28;1513;-68
2022/03/30 05:52:33;;;;;;;;;;;;;;;;;;5072491;28;1241;-70
2022/03/30 05:55:01;;;;;;;;;;;;;;;;;;5072938;28;1597;-70
2022/03/30 05:57:27;;;;;;;;;;;;;;;;;;5084744;28;1605;-67
2022/03/30 05:59:53;;;;;;;;;;;;;;;;;;5088937;28;1389;-69
2022/03/30 06:02:19;;;;;;;;;;;;;;;;;;5091087;28;1407;-69
2022/03/30 06:04:46;;;;;;;;;;;;;;;;;;5073335;28;1977;-67
2022/03/30 06:07:12;;;;;;;;;;;;;;;;;;5054127;28;1569;-70
2022/03/30 06:09:38;;;;;;;;;;;;;;;;;;5084809;28;1578;-69
2022/03/30 06:12:06;;;;;;;;;;;;;;;;;;5088169;28;1123;-69
2022/03/30 06:14:32;;;;;;;;;;;;;;;;;;5091992;28;1753;-69
2022/03/30 06:16:58;;;;;;;;;;;;;;;;;;5092376;28;1121;-69
2022/03/30 06:19:25;;;;;;;;;;;;;;;;;;5082514;28;1542;-70
2022/03/30 06:21:51;;;;;;;;;;;;;;;;;;5088335;28;1343;-69
2022/03/30 06:24:18;;;;;;;;;;;;;;;;;;5072086;28;1914;-69
2022/03/30 06:26:44;;;;;;;;;;;;;;;;;;5081390;28;1656;-68
2022/03/30 06:29:12;;;;;;;;;;;;;;;;;;5092257;28;1407;-69
2022/03/30 06:31:39;;;;;;;;;;;;;;;;;;5084991;28;1624;-68
2022/03/30 06:34:05;;;;;;;;;;;;;;;;;;5084122;28;1629;-68
2022/03/30 06:36:33;;;;;;;;;;;;;;;;;;5072178;28;813;-68
2022/03/30 06:39:00;;;;;;;;;;;;;;;;;;5083997;28;1365;-68
2022/03/30 06:41:26;;;;;;;;;;;;;;;;;;5087828;28;1403;-68
2022/03/30 06:43:52;;;;;;;;;;;;;;;;;;5091681;28;1973;-69
2022/03/30 06:46:20;;;;;;;;;;;;;;;;;;5086715;28;1395;-66
2022/03/30 06:48:46;;;;;;;;;;;;;;;;;;5080636;28;1336;-69
2022/03/30 06:51:13;;;;;;;;;;;;;;;;;;5075827;28;1629;-67
2022/03/30 06:53:39;;;;;;;;;;;;;;;;;;5075766;28;1148;-68
2022/03/30 06:56:05;;;;;;;;;;;;;;;;;;5071828;28;764;-67
2022/03/30 06:58:31;;;;;;;;;;;;;;;;;;5070562;28;1530;-68
2022/03/30 07:00:59;;;;;;;;;;;;;;;;;;5091452;28;1605;-69
2022/03/30 07:03:28;;;;;;;;;;;;;;;;;;5078201;28;1466;-69
2022/03/30 07:05:54;;;;;;;;;;;;;;;;;;5087049;28;1926;-69
2022/03/30 07:11:03;;;;;;;;;;;;;;;;;;5053291;28;1626;-69
2022/03/30 07:13:29;;;;;;;;;;;;;;;;;;5067670;28;1196;-68
2022/03/30 07:15:56;;;;;;;;;;;;;;;;;;5078263;28;1403;-69
2022/03/30 07:18:22;;;;;;;;;;;;;;;;;;5079690;28;1423;-70
2022/03/30 07:20:49;;;;;;;;;;;;;;;;;;5091087;22;4269;-69
2022/03/30 07:23:16;;;;;;;;;;;;;;;;;;5048395;28;2185;-69
2022/03/30 07:25:42;;;;;;;;;;;;;;;;;;5061147;28;1914;-70
2022/03/30 07:28:08;;;;;;;;;;;;;;;;;;5051448;28;1357;-69
2022/03/30 07:30:36;;;;;;;;;;;;;;;;;;5043752;28;1579;-69
2022/03/30 07:33:02;;;;;;;;;;;;;;;;;;5031195;28;1149;-70
2022/03/30 07:35:32;;;;;;;;;;;;;;;;;;5032272;28;1764;-70
2022/03/30 07:38:00;;;;;;;;;;;;;;;;;;5032941;28;1515;-68
2022/03/30 07:40:27;;;;;;;;;;;;;;;;;;5030453;28;1627;-69
2022/03/30 07:42:54;;;;;;;;;;;;;;;;;;5031508;28;1058;-69
2022/03/30 07:45:20;;;;;;;;;;;;;;;;;;5031409;28;1967;-69
2022/03/30 07:47:47;;;;;;;;;;;;;;;;;;5012911;28;1569;-69
2022/03/30 07:50:13;;;;;;;;;;;;;;;;;;5030898;28;1603;-69
2022/03/30 07:52:40;;;;;;;;;;;;;;;;;;5031038;28;1015;-69
2022/03/30 07:55:08;;;;;;;;;;;;;;;;;;5030836;28;1650;-69
2022/03/30 07:57:36;;;;;;;;;;;;;;;;;;5030961;28;1496;-69
2022/03/30 08:00:04;;;;;;;;;;;;;;;;;;5031397;28;1655;-69
2022/03/30 08:02:30;;;;;;;;;;;;;;;;;;5033677;28;806;-68
2022/03/30 08:04:56;;;;;;;;;;;;;;;;;;5035831;28;1981;-69
2022/03/30 08:07:26;;;;;;;;;;;;;;;;;;5030643;28;1578;-69
2022/03/30 08:09:52;;;;;;;;;;;;;;;;;;5013161;28;1418;-69
2022/03/30 08:12:20;;;;;;;;;;;;;;;;;;5030179;28;1998;-70
2022/03/30 08:14:46;;;;;;;;;;;;;;;;;;5030871;28;1065;-69
2022/03/30 08:17:13;;;;;;;;;;;;;;;;;;5022279;28;1865;-69
2022/03/30 08:19:39;;;;;;;;;;;;;;;;;;5028508;28;2369;-69
2022/03/30 08:24:50;;;;;;;;;;;;;;;;;;5030657;28;1918;-69
2022/03/30 08:27:16;;;;;;;;;;;;;;;;;;5030270;28;1818;-69
2022/03/30 08:29:44;;;;;;;;;;;;;;;;;;5029169;28;1460;-70
2022/03/30 08:32:11;;;;;;;;;;;;;;;;;;5029479;28;1563;-68
2022/03/30 08:34:37;;;;;;;;;;;;;;;;;;5029551;28;1588;-68
2022/03/30 08:37:04;;;;;;;;;;;;;;;;;;5030498;28;1638;-69
2022/03/30 08:39:30;;;;;;;;;;;;;;;;;;5029898;28;1587;-69
2022/03/30 08:41:56;;;;;;;;;;;;;;;;;;5029354;28;943;-68
2022/03/30 08:44:22;;;;;;;;;;;;;;;;;;5027573;28;2585;-68
2022/03/30 08:46:50;;;;;;;;;;;;;;;;;;5029603;28;1291;-69
2022/03/30 08:49:16;;;;;;;;;;;;;;;;;;5029188;28;1401;-69
2022/03/30 08:51:45;;;;;;;;;;;;;;;;;;5028735;28;1564;-69
2022/03/30 08:54:12;;;;;;;;;;;;;;;;;;5029371;28;1587;-70
2022/03/30 08:56:39;;;;;;;;;;;;;;;;;;5029591;28;1315;-69
2022/03/30 08:59:06;;;;;;;;;;;;;;;;;;5029829;28;1587;-70
2022/03/30 09:01:32;;;;;;;;;;;;;;;;;;5029758;28;1389;-69
2022/03/30 09:04:00;;;;;;;;;;;;;;;;;;5029980;28;1564;-70
2022/03/30 09:06:36;;;;;;;;;;;;;;;;;;5029705;28;1918;-71
2022/03/30 09:09:03;;;;;;;;;;;;;;;;;;5027528;28;1691;-69
2022/03/30 09:11:30;;;;;;;;;;;;;;;;;;5025469;28;1670;-71
2022/03/30 09:14:00;;;;;;;;;;;;;;;;;;5028299;28;1412;-71
2022/03/30 09:16:29;;;;;;;;;;;;;;;;;;5025818;28;1721;-70
2022/03/30 09:19:06;;;;;;;;;;;;;;;;;;5027112;28;2010;-69
2022/03/30 09:21:42;;;;;;;;;;;;;;;;;;5029182;28;1411;-69
2022/03/30 09:24:08;;;;;;;;;;;;;;;;;;5020994;28;1396;-69
2022/03/30 09:26:34;;;;;;;;;;;;;;;;;;5024898;28;1915;-69
2022/03/30 09:29:01;;;;;;;;;;;;;;;;;;5027143;28;1573;-69
2022/03/30 09:31:27;;;;;;;;;;;;;;;;;;5023205;28;1758;-69
2022/03/30 09:33:54;;;;;;;;;;;;;;;;;;5019878;28;1540;-69
2022/03/30 09:36:28;;;;;;;;;;;;;;;;;;5027035;28;1110;-69
2022/03/30 09:38:54;;;;;;;;;;;;;;;;;;5024138;28;1427;-69
2022/03/30 09:41:20;;;;;;;;;;;;;;;;;;5023662;28;1313;-70
2022/03/30 09:43:46;;;;;;;;;;;;;;;;;;5029362;28;1539;-70
2022/03/30 09:46:13;;;;;;;;;;;;;;;;;;5014045;28;1930;-70
2022/03/30 09:48:44;;;;;;;;;;;;;;;;;;5029678;28;1580;-69
2022/03/30 09:51:10;;;;;;;;;;;;;;;;;;5011434;28;2277;-69
2022/03/30 09:53:37;;;;;;;;;;;;;;;;;;5011960;28;1560;-70
2022/03/30 09:56:04;;;;;;;;;;;;;;;;;;5029682;28;1062;-69
2022/03/30 09:58:31;;;;;;;;;;;;;;;;;;5029597;28;1631;-69
2022/03/30 10:01:09;;;;;;;;;;;;;;;;;;5029937;28;1314;-70
2022/03/30 10:03:42;;;;;;;;;;;;;;;;;;5030627;28;1537;-70
2022/03/30 10:06:09;;;;;;;;;;;;;;;;;;5029573;28;1977;-70
2022/03/30 10:08:37;;;;;;;;;;;;;;;;;;5029655;28;1568;-70
2022/03/30 10:11:03;;;;;;;;;;;;;;;;;;5029665;28;1393;-69
2022/03/30 10:13:30;;;;;;;;;;;;;;;;;;5029107;28;1622;-69
2022/03/30 10:15:56;;;;;;;;;;;;;;;;;;5029431;28;1507;-70
2022/03/30 10:18:23;;;;;;;;;;;;;;;;;;5033563;28;1421;-70
2022/03/30 10:20:51;;;;;;;;;;;;;;;;;;5034027;28;1387;-69
2022/03/30 10:23:20;;;;;;;;;;;;;;;;;;5033939;28;1063;-71
2022/03/30 10:26:04;;;;;;;;;;;;;;;;;;5033509;28;1970;-68
2022/03/30 10:28:44;;;;;;;;;;;;;;;;;;5033803;28;1472;-68
2022/03/30 10:31:10;;;;;;;;;;;;;;;;;;5033823;28;1334;-68
2022/03/30 10:33:39;;;;;;;;;;;;;;;;;;5033420;28;1392;-70
2022/03/30 10:36:20;;;;;;;;;;;;;;;;;;5032486;28;1611;-67
2022/03/30 10:39:01;;;;;;;;;;;;;;;;;;5032793;28;955;-69
2022/03/30 10:41:42;;;;;;;;;;;;;;;;;;5032117;28;1778;-69
2022/03/30 10:44:26;;;;;;;;;;;;;;;;;;5018909;28;1387;-69
2022/03/30 10:47:06;;;;;;;;;;;;;;;;;;5031710;28;1967;-69
2022/03/30 10:49:40;;;;;;;;;;;;;;;;;;5033043;28;1344;-69
2022/03/30 10:52:27;;;;;;;;;;;;;;;;;;5031951;28;1663;-68
2022/03/30 10:55:08;;;;;;;;;;;;;;;;;;5027311;28;1642;-69
2022/03/30 10:57:43;;;;;;;;;;;;;;;;;;5032214;28;1387;-68
2022/03/30 11:00:16;;;;;;;;;;;;;;;;;;5037818;28;1349;-68
2022/03/30 11:02:43;;;;;;;;;;;;;;;;;;5041708;28;1138;-68
2022/03/30 11:05:10;;;;;;;;;;;;;;;;;;5033936;28;1990;-69
2022/03/30 11:07:37;;;;;;;;;;;;;;;;;;5031008;28;935;-69
2022/03/30 11:10:19;;;;;;;;;;;;;;;;;;5031961;28;1310;-68
2022/03/30 11:12:56;;;;;;;;;;;;;;;;;;5031924;28;1050;-68
2022/03/30 11:15:22;;;;;;;;;;;;;;;;;;5032259;28;1058;-68
2022/03/30 11:17:50;;;;;;;;;;;;;;;;;;5032240;28;1090;-69
2022/03/30 11:20:16;;;;;;;;;;;;;;;;;;5031952;28;1271;-68
2022/03/30 11:22:45;;;;;;;;;;;;;;;;;;5032100;28;951;-68
2022/03/30 11:25:12;;;;;;;;;;;;;;;;;;5031987;28;1985;-67
2022/03/30 11:27:39;;;;;;;;;;;;;;;;;;5030662;28;1548;-70
2022/03/30 11:30:09;;;;;;;;;;;;;;;;;;5030433;28;1431;-69
2022/03/30 11:33:04;;;;;;;;;;;;;;;;;;5031526;28;1129;-68
2022/03/30 11:35:34;;;;;;;;;;;;;;;;;;5034344;28;1542;-69
2022/03/30 11:38:02;;;;;;;;;;;;;;;;;;5031145;28;1650;-69
2022/03/30 11:40:29;;;;;;;;;;;;;;;;;;5031410;28;1365;-68
2022/03/30 11:42:56;;;;;;;;;;;;;;;;;;5030717;28;1050;-67
2022/03/30 11:45:23;;;;;;;;;;;;;;;;;;5030336;28;1973;-67
2022/03/30 11:47:51;;;;;;;;;;;;;;;;;;5027751;28;1284;-68
2022/03/30 11:50:20;;;;;;;;;;;;;;;;;;5030547;28;1341;-67
2022/03/30 11:52:55;;;;;;;;;;;;;;;;;;5031260;28;1070;-68
2022/03/30 11:55:21;;;;;;;;;;;;;;;;;;5040057;28;1065;-68
2022/03/30 11:57:47;;;;;;;;;;;;;;;;;;5050489;28;1094;-68
2022/03/30 12:00:14;;;;;;;;;;;;;;;;;;5032784;28;1336;-68
2022/03/30 12:02:42;;;;;;;;;;;;;;;;;;5051165;28;1121;-68
2022/03/30 12:05:08;;;;;;;;;;;;;;;;;;5050286;28;1899;-68
2022/03/30 12:07:35;;;;;;;;;;;;;;;;;;5048883;28;1841;-68
2022/03/30 12:10:03;;;;;;;;;;;;;;;;;;5012657;28;1535;-69
2022/03/30 12:12:31;;;;;;;;;;;;;;;;;;5029982;28;1607;-68
2022/03/30 12:14:58;;;;;;;;;;;;;;;;;;5030516;28;1467;-69
2022/03/30 12:17:24;;;;;;;;;;;;;;;;;;5029484;28;1647;-68
2022/03/30 12:19:51;;;;;;;;;;;;;;;;;;5030519;28;1651;-68
2022/03/30 12:22:17;;;;;;;;;;;;;;;;;;5030433;28;1639;-69
2022/03/30 12:24:43;;;;;;;;;;;;;;;;;;5029504;28;1384;-69
2022/03/30 12:27:11;;;;;;;;;;;;;;;;;;5043438;28;1914;-68
2022/03/30 12:29:38;;;;;;;;;;;;;;;;;;5042007;28;1424;-69
2022/03/30 12:32:05;;;;;;;;;;;;;;;;;;5030783;28;1002;-68
2022/03/30 12:34:34;;;;;;;;;;;;;;;;;;5029647;28;1381;-67
2022/03/30 12:37:01;;;;;;;;;;;;;;;;;;5026952;28;1618;-68
2022/03/30 12:39:29;;;;;;;;;;;;;;;;;;5029966;28;1671;-68
2022/03/30 12:41:56;;;;;;;;;;;;;;;;;;5029659;28;1670;-68
2022/03/30 12:44:23;;;;;;;;;;;;;;;;;;5028669;28;1401;-69
2022/03/30 12:46:52;;;;;;;;;;;;;;;;;;5029446;28;1918;-68
2022/03/30 12:49:18;;;;;;;;;;;;;;;;;;5011844;28;1365;-69
2022/03/30 12:51:44;;;;;;;;;;;;;;;;;;5036282;28;1285;-67
2022/03/30 12:54:20;;;;;;;;;;;;;;;;;;5029632;28;1413;-68
2022/03/30 12:56:46;;;;;;;;;;;;;;;;;;5029493;28;1580;-68
2022/03/30 12:59:17;;;;;;;;;;;;;;;;;;5029788;28;1698;-68
2022/03/30 13:01:49;;;;;;;;;;;;;;;;;;5029227;28;1056;-68
2022/03/30 13:04:19;;;;;;;;;;;;;;;;;;5031287;28;1540;-69
2022/03/30 13:07:00;;;;;;;;;;;;;;;;;;5038549;28;1895;-69
2022/03/30 13:09:28;;;;;;;;;;;;;;;;;;5030269;28;1866;-69
2022/03/30 13:11:57;;;;;;;;;;;;;;;;;;5029566;28;1290;-69
2022/03/30 13:14:23;;;;;;;;;;;;;;;;;;5011381;28;1433;-69
2022/03/30 13:16:57;;;;;;;;;;;;;;;;;;5027872;28;1525;-69
2022/03/30 13:19:24;;;;;;;;;;;;;;;;;;5029457;28;1576;-70
2022/03/30 13:21:51;;;;;;;;;;;;;;;;;;5029116;28;1642;-68
2022/03/30 13:24:17;;;;;;;;;;;;;;;;;;5041997;23;2593;-68
2022/03/30 13:26:44;;;;;;;;;;;;;;;;;;5044572;28;1982;-69
2022/03/30 13:29:11;;;;;;;;;;;;;;;;;;5046869;28;1164;-69
2022/03/30 13:31:39;;;;;;;;;;;;;;;;;;5047425;28;1567;-70
2022/03/30 13:34:07;;;;;;;;;;;;;;;;;;5047341;28;1419;-70
2022/03/30 13:36:33;;;;;;;;;;;;;;;;;;5045428;28;1492;-70
2022/03/30 13:39:00;;;;;;;;;;;;;;;;;;5046821;28;1547;-70
2022/03/30 13:41:26;;;;;;;;;;;;;;;;;;5046375;28;1515;-70
2022/03/30 13:43:52;;;;;;;;;;;;;;;;;;5046556;28;1551;-70
2022/03/30 13:46:19;;;;;;;;;;;;;;;;;;5032838;28;1981;-69
2022/03/30 13:48:46;;;;;;;;;;;;;;;;;;5047313;28;1359;-69
2022/03/30 13:51:13;;;;;;;;;;;;;;;;;;5047056;28;1653;-69
2022/03/30 13:53:40;;;;;;;;;;;;;;;;;;5050669;28;1335;-69
2022/03/30 13:56:06;;;;;;;;;;;;;;;;;;5050588;28;1554;-69
2022/03/30 13:58:34;;;;;;;;;;;;;;;;;;5052603;28;1569;-69
2022/03/30 14:01:02;;;;;;;;;;;;;;;;;;5051931;28;1019;-69
2022/03/30 14:03:30;;;;;;;;;;;;;;;;;;5051564;28;1597;-69
2022/03/30 14:05:56;;;;;;;;;;;;;;;;;;5045362;28;1942;-69
2022/03/30 14:08:24;;;;;;;;;;;;;;;;;;5049584;28;1589;-68
2022/03/30 14:10:50;;;;;;;;;;;;;;;;;;5048310;28;1364;-68
2022/03/30 14:13:17;;;;;;;;;;;;;;;;;;5048870;28;1583;-68
2022/03/30 14:15:43;;;;;;;;;;;;;;;;;;5040615;28;1375;-68
2022/03/30 14:18:10;;;;;;;;;;;;;;;;;;5048471;28;1435;-69
2022/03/30 14:20:38;;;;;;;;;;;;;;;;;;5049229;28;1590;-69
2022/03/30 14:23:05;;;;;;;;;;;;;;;;;;5049856;28;1571;-69
2022/03/30 14:25:33;;;;;;;;;;;;;;;;;;5049560;28;1551;-69
2022/03/30 14:27:59;;;;;;;;;;;;;;;;;;5049826;28;1918;-70
2022/03/30 14:30:26;;;;;;;;;;;;;;;;;;5050018;28;1622;-69
2022/03/30 14:32:53;;;;;;;;;;;;;;;;;;5048515;28;1776;-69
2022/03/30 14:35:19;;;;;;;;;;;;;;;;;;5048701;28;1545;-68
2022/03/30 14:37:46;;;;;;;;;;;;;;;;;;5048624;28;1776;-68
2022/03/30 14:40:13;;;;;;;;;;;;;;;;;;5051488;28;1217;-68
2022/03/30 14:42:40;;;;;;;;;;;;;;;;;;5049997;28;1368;-68
2022/03/30 14:45:07;;;;;;;;;;;;;;;;;;5050080;28;1579;-68
2022/03/30 14:47:34;;;;;;;;;;;;;;;;;;5049079;28;2005;-69
2022/03/30 14:50:00;;;;;;;;;;;;;;;;;;5034080;28;1614;-68
2022/03/30 14:52:27;;;;;;;;;;;;;;;;;;5049963;28;1563;-68
2022/03/30 14:54:55;;;;;;;;;;;;;;;;;;5049198;28;1488;-69
2022/03/30 14:57:22;;;;;;;;;;;;;;;;;;5050316;28;1626;-70
2022/03/30 14:59:49;;;;;;;;;;;;;;;;;;5049775;28;1571;-69
2022/03/30 15:02:16;;;;;;;;;;;;;;;;;;5049595;28;1567;-69
2022/03/30 15:04:42;;;;;;;;;;;;;;;;;;5049590;28;1688;-66
2022/03/30 15:07:08;;;;;;;;;;;;;;;;;;5049330;28;1980;-67
2022/03/30 15:09:35;;;;;;;;;;;;;;;;;;5049548;28;1376;-66
2022/03/30 15:12:01;;;;;;;;;;;;;;;;;;5048426;28;1559;-69
2022/03/30 15:14:28;;;;;;;;;;;;;;;;;;5050981;28;1570;-68
2022/03/30 15:16:55;;;;;;;;;;;;;;;;;;5048497;28;1422;-69
2022/03/30 15:19:23;;;;;;;;;;;;;;;;;;5051052;28;1626;-68
2022/03/30 15:21:49;;;;;;;;;;;;;;;;;;5032025;28;1622;-68
2022/03/30 15:24:16;;;;;;;;;;;;;;;;;;5045586;28;1547;-68
2022/03/30 15:26:42;;;;;;;;;;;;;;;;;;5049541;28;1975;-69
2022/03/30 15:29:10;;;;;;;;;;;;;;;;;;5050413;28;1555;-68
2022/03/30 15:31:36;;;;;;;;;;;;;;;;;;5046356;28;1357;-68
2022/03/30 15:34:04;;;;;;;;;;;;;;;;;;5048773;28;1587;-68
2022/03/30 15:36:30;;;;;;;;;;;;;;;;;;5044248;28;1427;-68
2022/03/30 15:38:57;;;;;;;;;;;;;;;;;;5049686;28;1551;-68
2022/03/30 15:41:23;;;;;;;;;;;;;;;;;;5049050;28;1147;-68
2022/03/30 15:43:49;;;;;;;;;;;;;;;;;;5048517;28;1506;-68
2022/03/30 15:46:16;;;;;;;;;;;;;;;;;;5048837;28;1622;-68
2022/03/30 15:48:43;;;;;;;;;;;;;;;;;;5049048;28;1577;-68
2022/03/30 15:51:10;;;;;;;;;;;;;;;;;;5048875;28;1642;-68
2022/03/30 15:53:39;;;;;;;;;;;;;;;;;;5049732;28;1602;-68
2022/03/30 15:56:05;;;;;;;;;;;;;;;;;;5048709;28;1353;-69
2022/03/30 15:58:32;;;;;;;;;;;;;;;;;;5035419;28;1503;-68
2022/03/30 16:00:59;;;;;;;;;;;;;;;;;;5047324;28;1642;-71
2022/03/30 16:03:25;;;;;;;;;;;;;;;;;;5053139;28;1351;-70
2022/03/30 16:05:52;;;;;;;;;;;;;;;;;;5054135;28;1307;-69
2022/03/30 16:13:47;;;;;;;;;;;;;;;;;;5050056;28;1313;-70
2022/03/30 16:16:14;;;;;;;;;;;;;;;;;;5049008;28;1152;-69
2022/03/30 16:18:40;;;;;;;;;;;;;;;;;;5049967;28;1227;-69
2022/03/30 16:21:06;;;;;;;;;;;;;;;;;;5048957;28;1519;-68
2022/03/30 16:23:34;;;;;;;;;;;;;;;;;;5049436;28;1618;-69
2022/03/30 16:26:01;;;;;;;;;;;;;;;;;;5049022;28;1587;-69
2022/03/30 16:28:28;;;;;;;;;;;;;;;;;;5048779;28;1973;-69
2022/03/30 16:30:54;;;;;;;;;;;;;;;;;;5049545;28;1520;-69
2022/03/30 16:33:20;;;;;;;;;;;;;;;;;;5048146;28;1575;-70
2022/03/30 16:35:47;;;;;;;;;;;;;;;;;;5048286;28;1652;-70
2022/03/30 16:38:13;;;;;;;;;;;;;;;;;;5046865;28;1544;-69
2022/03/30 16:40:41;;;;;;;;;;;;;;;;;;5047283;28;1282;-68
2022/03/30 16:43:07;;;;;;;;;;;;;;;;;;5047002;28;1597;-69
2022/03/30 16:45:34;;;;;;;;;;;;;;;;;;5047556;28;1387;-69
2022/03/30 16:48:04;;;;;;;;;;;;;;;;;;5047113;28;1981;-69
2022/03/30 16:50:31;;;;;;;;;;;;;;;;;;5047712;28;1167;-69
2022/03/30 16:52:57;;;;;;;;;;;;;;;;;;5046361;28;1554;-71
2022/03/30 16:55:23;;;;;;;;;;;;;;;;;;5048268;28;1423;-70
2022/03/30 16:57:51;;;;;;;;;;;;;;;;;;5047008;28;1155;-69
2022/03/30 17:00:18;;;;;;;;;;;;;;;;;;5046544;28;1428;-69
2022/03/30 17:02:44;;;;;;;;;;;;;;;;;;5041573;28;1571;-69
2022/03/30 17:05:10;;;;;;;;;;;;;;;;;;5046019;28;1618;-69
2022/03/30 17:07:36;;;;;;;;;;;;;;;;;;5046432;28;1914;-69
2022/03/30 17:10:02;;;;;;;;;;;;;;;;;;5046923;28;1308;-69
2022/03/30 17:12:29;;;;;;;;;;;;;;;;;;5046429;28;1607;-69
2022/03/30 17:14:57;;;;;;;;;;;;;;;;;;5048104;28;1505;-69
2022/03/30 17:17:23;;;;;;;;;;;;;;;;;;5046181;28;1628;-69
2022/03/30 17:19:52;;;;;;;;;;;;;;;;;;5046888;28;1571;-69